Latest Weather Observations for Parawa West

IDS60801

Issued at 7:31 am CDT Friday 12 February 2016 (issued every 30 minutes, with the page automatically refreshed every 10 minutes)

About weather observations | Map of weather stations | Latest weather observations for SA | Other Formats
Station Details ID: 023875 Name: SECOND VALLEY FOREST AWS Lat: -35.57 Lon: 138.29 Height: 341.0 m
Data from the previous 72 hours. | See also: Recent months at Parawa West
Date/Time
CDT
Temp
°C
App
Temp
°C
Dew
Point
Rel
Hum
%
Delta-T
°C
Wind Press
QNH
hPa
Press
MSL
hPa
Rain
since 9 am
mm
Dir
 
Spd
km/h
Gust
km/h
Spd
kts
Gust
kts
12/07:30am 14.5 12.5 14.0 97 0.3 ESE 17 20 9 11 1016.2 1015.2 0.0
12/07:00am 14.6 13.4 14.1 97 0.3 ESE 13 19 7 10 1016.0 1014.9 0.0
12/06:30am 14.6 12.6 14.0 96 0.3 ESE 17 22 9 12 1015.7 1014.6 0.0
12/06:00am 14.6 11.3 14.0 96 0.3 SE 24 32 13 17 1015.4 1014.3 0.0
12/05:30am 14.8 12.0 14.2 96 0.3 SE 22 30 12 16 1015.5 1014.4 0.0
12/05:00am 14.9 12.1 14.3 96 0.3 SE 22 30 12 16 1015.4 1014.3 0.0
12/04:30am 14.8 12.3 14.2 96 0.3 SE 20 28 11 15 1015.4 1014.3 0.0
12/04:00am 14.7 11.8 14.1 96 0.3 SE 22 28 12 15 1015.4 1014.3 0.0
12/03:30am 14.6 11.3 14.1 97 0.3 SSE 24 32 13 17 1015.6 1014.5 0.0
12/03:00am 14.3 11.3 13.7 96 0.3 SSE 22 30 12 16 1015.9 1014.8 0.0
12/02:30am 14.6 11.3 14.1 97 0.3 SE 24 32 13 17 1015.9 1014.8 0.0
12/02:00am 14.6 11.3 14.1 97 0.3 SE 24 30 13 16 1016.3 1015.3 0.0
12/01:30am 14.8 11.2 14.2 96 0.3 SE 26 33 14 18 1016.3 1015.3 0.0
12/01:00am 14.9 10.9 14.1 95 0.5 SE 28 33 15 18 1016.7 1015.7 0.0
12/12:30am 15.1 11.5 14.3 95 0.5 SE 26 37 14 20 1017.0 1016.0 0.0
12/12:00am 15.1 10.7 14.1 94 0.6 SE 30 35 16 19 1017.0 1016.0 0.0
 
Date/Time
CDT
Temp
°C
App
Temp
°C
Dew
Point
Rel
Hum
%
Delta-T
°C
Wind Press
QNH
hPa
Press
MSL
hPa
Rain
since 9 am
mm
Dir
 
Spd
km/h
Gust
km/h
Spd
kts
Gust
kts
11/11:30pm 15.1 11.2 14.3 95 0.5 SE 28 37 15 20 1017.3 1016.2 0.0
11/11:00pm 15.2 10.8 14.2 94 0.6 SSE 30 39 16 21 1017.4 1016.3 0.0
11/10:30pm 15.3 10.9 14.2 93 0.6 SSE 30 39 16 21 1017.6 1016.5 0.0
11/10:00pm 15.6 10.9 14.3 92 0.8 SSE 32 41 17 22 1017.7 1016.6 0.0
11/09:30pm 15.7 10.8 14.4 92 0.8 SSE 33 43 18 23 1017.6 1016.5 0.0
11/09:00pm 15.8 11.0 14.5 92 0.8 SSE 33 43 18 23 1017.4 1016.3 0.0
11/08:30pm 15.8 11.1 14.3 91 0.9 SSE 32 41 17 22 1017.3 1016.2 0.0
11/08:00pm 16.1 12.3 14.6 91 0.9 SSE 28 39 15 21 1017.0 1016.0 0.0
11/07:30pm 16.3 12.3 14.1 87 1.3 SSE 28 41 15 22 1016.7 1015.7 0.0
11/07:00pm 16.7 12.4 14.3 86 1.4 SSE 30 39 16 21 1016.4 1015.4 0.0
11/06:30pm 17.0 12.2 14.1 83 1.7 SSE 32 39 17 21 1016.5 1015.5 0.0
11/06:00pm 17.3 12.4 14.2 82 1.8 SSE 33 39 18 21 1016.4 1015.4 0.0
11/05:30pm 18.1 13.2 13.8 76 2.5 SSE 32 39 17 21 1016.3 1015.3 0.0
11/05:00pm 18.1 13.5 13.6 75 2.6 SSE 30 41 16 22 1016.2 1015.2 0.0
11/04:30pm 19.9 15.6 14.3 70 3.3 SSE 30 37 16 20 1016.0 1014.9 0.0
11/04:00pm 18.9 14.0 13.7 72 3.0 SSE 32 39 17 21 1016.2 1015.2 0.0
11/03:30pm 19.2 14.2 13.4 69 3.3 SSE 32 41 17 22 1016.5 1015.5 0.0
11/03:00pm 19.3 14.9 13.0 67 3.6 SE 28 41 15 22 1016.6 1015.6 0.0
11/02:30pm 19.2 14.8 12.9 67 3.6 SE 28 35 15 19 1016.8 1015.8 0.0
11/02:00pm 19.1 14.7 12.8 67 3.6 SE 28 35 15 19 1017.0 1016.0 0.0
11/01:30pm 18.4 13.5 12.4 68 3.4 SE 30 35 16 19 1017.1 1016.1 0.0
11/01:00pm 19.4 14.7 13.1 67 3.6 SE 30 37 16 20 1017.3 1016.2 0.0
11/12:30pm 19.6 15.3 13.1 66 3.7 SE 28 35 15 19 1017.4 1016.3 0.0
11/12:00pm 19.1 15.2 13.3 69 3.3 SE 26 32 14 17 1017.5 1016.4 0.0
11/11:30am 18.3 13.9 13.0 71 3.0 SE 28 37 15 20 1017.7 1016.6 0.0
11/11:00am 18.2 14.3 13.3 73 2.8 SE 26 35 14 19 1017.6 1016.5 0.0
11/10:30am 17.5 13.1 13.0 75 2.6 SE 28 35 15 19 1017.7 1016.6 0.0
11/10:00am 16.9 12.1 13.0 78 2.2 SE 30 41 16 22 1017.8 1016.7 0.0
11/09:30am 16.0 11.3 13.1 83 1.6 SE 30 41 16 22 1018.0 1016.9 0.0
11/09:00am 15.7 10.3 12.8 83 1.6 SE 33 46 18 25 1018.1 1017.0 0.0
11/08:30am 15.8 10.9 13.8 88 1.1 SE 32 39 17 21 1018.1 1017.0 0.0
11/08:00am 14.9 9.7 12.9 88 1.1 SE 32 41 17 22 1017.7 1016.6 0.0
11/07:30am 14.7 10.0 13.2 91 0.8 SE 30 41 16 22 1017.3 1016.2 0.0
11/07:00am 14.5 10.0 12.5 88 1.1 SE 28 37 15 20 1017.1 1016.1 0.0
11/06:30am 14.6 9.9 13.1 91 0.8 SE 30 39 16 21 1016.7 1015.7 0.0
11/06:00am 14.8 10.0 12.8 88 1.1 SE 30 43 16 23 1016.7 1015.7 0.0
11/05:30am 14.9 10.6 13.3 90 0.9 SE 28 35 15 19 1016.3 1015.3 0.0
11/05:00am 14.9 9.7 13.4 91 0.8 SSE 33 41 18 22 1016.1 1015.0 0.0
11/04:30am 14.9 10.2 13.3 90 0.9 SE 30 37 16 20 1015.9 1014.8 0.0
11/04:00am 14.9 9.7 12.9 88 1.1 SSE 32 39 17 21 1015.8 1014.7 0.0
11/03:30am 15.0 10.8 13.5 91 0.8 SE 28 37 15 20 1015.8 1014.7 0.0
11/03:00am 15.1 10.9 13.6 91 0.9 SSE 28 35 15 19 1015.9 1014.8 0.0
11/02:30am 15.1 10.5 13.6 91 0.9 SE 30 37 16 20 1016.0 1014.9 0.0
11/02:00am 15.2 10.7 13.9 92 0.7 SE 30 39 16 21 1016.1 1015.0 0.0
11/01:30am 15.2 10.7 13.9 92 0.7 SSE 30 41 16 22 1016.3 1015.3 0.0
11/01:00am 15.2 10.4 13.9 92 0.7 SE 32 43 17 23 1016.3 1015.3 0.0
11/12:30am 15.2 10.2 13.9 92 0.7 SSE 33 44 18 24 1016.4 1015.4 0.0
11/12:00am 15.2 10.2 14.1 93 0.6 SSE 33 46 18 25 1016.5 1015.5 0.0
 
Date/Time
CDT
Temp
°C
App
Temp
°C
Dew
Point
Rel
Hum
%
Delta-T
°C
Wind Press
QNH
hPa
Press
MSL
hPa
Rain
since 9 am
mm
Dir
 
Spd
km/h
Gust
km/h
Spd
kts
Gust
kts
10/11:30pm 15.2 9.9 14.1 93 0.6 SSE 35 46 19 25 1016.4 1015.4 0.0
10/11:00pm 15.2 10.5 14.2 94 0.6 SSE 32 43 17 23 1016.5 1015.5 0.0
10/10:30pm 15.2 10.5 14.2 94 0.6 SSE 32 41 17 22 1016.5 1015.5 0.0
10/10:00pm 15.2 10.5 14.2 94 0.6 SSE 32 43 17 23 1016.4 1015.4 0.0
10/09:30pm 15.0 10.2 14.0 94 0.6 SSE 32 41 17 22 1016.2 1015.2 0.0
10/09:00pm 15.2 10.4 14.1 93 0.6 SSE 32 43 17 23 1016.2 1015.2 0.0
10/08:30pm 15.3 10.6 14.2 93 0.6 SE 32 39 17 21 1016.2 1015.2 0.0
10/08:00pm 15.6 10.8 14.1 91 0.9 SSE 32 43 17 23 1016.1 1015.0 0.0
10/07:30pm 15.6 11.1 13.8 89 1.0 SSE 30 41 16 22 1015.9 1014.8 0.0
10/07:00pm 16.0 11.5 13.7 86 1.3 SSE 30 37 16 20 1015.9 1014.8 0.0
10/06:30pm 16.4 11.8 13.5 83 1.7 SSE 30 43 16 23 1015.6 1014.5 0.0
10/06:00pm 17.0 12.2 13.9 82 1.8 SSE 32 41 17 22 1015.5 1014.4 0.0
10/05:30pm 16.5 11.8 13.2 81 1.9 SSE 30 39 16 21 1015.4 1014.3 0.0
10/05:00pm 16.9 12.2 13.2 79 2.1 SSE 30 37 16 20 1015.3 1014.2 0.0
10/04:30pm 17.4 13.1 13.3 77 2.3 SSE 28 37 15 20 1015.4 1014.3 0.0
10/04:00pm 17.2 13.4 13.7 80 2.0 SSE 26 37 14 20 1015.6 1014.5 0.0
10/03:30pm 18.0 14.4 14.3 79 2.2 SSE 26 35 14 19 1015.6 1014.5 0.0
10/03:00pm 19.0 15.4 14.1 73 2.9 SSE 26 33 14 18 1015.9 1014.8 0.0
10/02:30pm 18.7 15.1 14.2 75 2.6 SSE 26 32 14 17 1016.0 1014.9 0.0
10/02:00pm 18.6 15.0 13.2 71 3.1 SSE 24 32 13 17 1015.9 1014.8 0.0
10/01:30pm 19.1 15.8 14.1 73 2.9 SSE 24 30 13 16 1016.2 1015.2 0.0
10/01:00pm 19.2 16.2 13.8 71 3.1 SSE 22 32 12 17 1016.3 1015.3 0.0
10/12:30pm 20.1 17.6 14.2 69 3.5 SSE 20 24 11 13 1016.5 1015.5 0.0
10/12:00pm 21.0 18.6 13.9 64 4.2 SE 19 26 10 14 1016.8 1015.8 0.0
10/11:30am 19.8 17.3 14.2 70 3.3 SE 20 26 11 14 1017.0 1016.0 0.0
10/11:00am 18.8 15.6 13.2 70 3.2 SSE 22 28 12 15 1017.3 1016.2 0.0
10/10:30am 19.5 16.3 13.2 67 3.6 SE 22 28 12 15 1017.3 1016.2 0.0
10/10:00am 18.4 15.6 13.3 72 2.9 SE 20 26 11 14 1017.1 1016.1 0.0
10/09:30am 17.4 14.5 13.9 80 2.0 SE 22 28 12 15 1017.0 1016.0 0.0
10/09:00am 16.3 13.9 14.3 88 1.2 SE 20 26 11 14 1016.9 1015.9 0.0
10/08:30am 15.0 11.8 14.2 95 0.5 SSE 24 32 13 17 1016.8 1015.8 0.0
10/08:00am 14.6 11.3 14.0 96 0.3 SSE 24 30 13 16 1016.6 1015.6 0.0
10/07:30am 14.3 10.9 13.8 97 0.3 SSE 24 32 13 17 1016.4 1015.4 0.0
10/07:00am 14.3 11.4 14.0 98 0.2 SSE 22 30 12 16 1016.3 1015.3 0.0
10/06:30am 13.9 10.9 13.6 98 0.2 SSE 22 28 12 15 1015.9 1014.8 0.0
10/06:00am 14.0 11.6 13.8 99 0.1 SE 19 24 10 13 1015.7 1014.6 0.0
10/05:30am 13.7 11.6 13.5 99 0.1 SSE 17 22 9 12 1015.6 1014.5 0.0
10/05:00am 13.8 11.1 13.6 99 0.1 SSE 20 26 11 14 1015.6 1014.5 0.0
10/04:30am 13.8 11.1 13.6 99 0.1 SSE 20 28 11 15 1015.7 1014.6 0.0
10/04:00am 13.6 11.0 13.3 98 0.2 SE 19 24 10 13 1015.7 1014.6 0.0
10/03:30am 13.8 11.0 13.3 97 0.3 SSE 20 26 11 14 1015.8 1014.7 0.0
10/03:00am 14.3 11.0 14.0 98 0.2 SE 24 33 13 18 1015.9 1014.8 0.0
10/02:30am 14.3 11.0 14.1 99 0.1 SSE 24 30 13 16 1016.4 1015.4 0.0
10/02:00am 14.1 11.2 13.9 99 0.1 SSE 22 28 12 15 1016.5 1015.5 0.0
10/01:30am 14.0 11.4 13.8 99 0.1 SE 20 26 11 14 1016.5 1015.5 0.0
10/01:00am 14.1 11.7 13.9 99 0.1 SE 19 24 10 13 1017.0 1016.0 0.0
10/12:30am 14.1 11.5 13.9 99 0.1 SSE 20 28 11 15 1017.1 1016.1 0.0
10/12:00am 13.9 11.3 13.7 99 0.1 SSE 20 24 11 13 1016.9 1015.9 0.0
 
Date/Time
CDT
Temp
°C
App
Temp
°C
Dew
Point
Rel
Hum
%
Delta-T
°C
Wind Press
QNH
hPa
Press
MSL
hPa
Rain
since 9 am
mm
Dir
 
Spd
km/h
Gust
km/h
Spd
kts
Gust
kts
09/11:30pm 13.9 11.3 13.7 99 0.1 SE 20 24 11 13 1017.4 1016.3 0.0
09/11:00pm 14.0 11.4 13.7 98 0.2 SE 20 24 11 13 1017.8 1016.7 0.0
09/10:30pm 14.4 11.8 13.9 97 0.3 SE 20 22 11 12 1017.9 1016.8 0.0
09/10:00pm 14.6 12.3 14.1 97 0.3 SSE 19 24 10 13 1018.1 1017.0 0.0
09/09:30pm 14.8 12.0 14.2 96 0.3 SSE 22 28 12 15 1017.8 1016.7 0.0
09/09:00pm 14.9 12.1 14.3 96 0.3 SSE 22 28 12 15 1017.7 1016.6 0.0
09/08:30pm 15.1 12.8 14.0 93 0.6 SSE 19 22 10 12 1017.7 1016.6 0.0
09/08:00pm 16.4 13.3 11.6 73 2.6 SSE 19 24 10 13 1017.8 1016.7 0.0
09/07:30pm 17.1 14.5 13.2 78 2.2 SE 19 24 10 13 1017.8 1016.7 0.0
09/07:00pm 17.3 14.6 13.6 79 2.1 SSE 20 26 11 14 1017.7 1016.6 0.0
09/06:30pm 17.9 15.6 14.0 78 2.3 SSE 19 26 10 14 1017.8 1016.7 0.0
09/06:00pm 18.6 16.0 13.9 74 2.7 SE 20 24 11 13 1017.7 1016.6 0.0
09/05:30pm 18.8 16.4 14.5 76 2.5 SSE 20 26 11 14 1017.8 1016.7 0.0
09/05:00pm 18.9 16.3 15.0 78 2.3 SSE 22 28 12 15 1018.1 1017.0 0.0
09/04:30pm 19.3 16.7 14.8 75 2.7 SSE 22 28 12 15 1018.4 1017.3 0.0
09/04:00pm 18.9 15.8 14.4 75 2.6 S 24 30 13 16 1018.6 1017.5 0.0
09/03:30pm 20.3 18.0 14.7 70 3.3 SSE 20 26 11 14 1018.9 1017.9 0.0
09/03:00pm 20.8 18.7 14.7 68 3.6 SSE 19 24 10 13 1019.0 1018.0 0.0
09/02:30pm 21.0 19.3 14.6 67 3.8 SSE 17 22 9 12 1019.2 1018.2 0.0
09/02:00pm 21.6 20.0 15.0 66 4.0 SSE 17 22 9 12 1019.4 1018.4 0.0
09/01:30pm 21.3 19.0 14.7 66 3.9 S 20 24 11 13 1019.7 1018.7 0.0
09/01:00pm 23.8 23.0 15.0 57 5.3 SSE 13 17 7 9 1019.8 1018.8 0.0
09/12:30pm 22.6 21.8 15.0 62 4.6 SSE 13 19 7 10 1020.0 1019.0 0.0
09/12:00pm 23.6 22.6 13.5 53 5.9 SE 11 19 6 10 1020.2 1019.2 0.0
09/11:30am 22.6 21.3 13.7 57 5.2 ESE 13 17 7 9 1020.5 1019.4 0.0
09/11:00am 21.1 19.8 13.8 63 4.3 ESE 13 20 7 11 1020.8 1019.7 0.0
09/10:30am 19.9 18.5 14.5 71 3.2 SE 15 20 8 11 1020.8 1019.7 0.0
09/10:00am 18.6 16.2 13.9 74 2.7 ESE 19 22 10 12 1020.9 1019.8 0.0
09/09:30am 16.8 14.3 13.5 81 1.9 ESE 19 22 10 12 1021.1 1020.0 0.0
09/09:00am 15.9 13.7 13.2 84 1.5 ESE 17 20 9 11 1021.3 1020.3 0.0
09/08:30am 15.4 13.4 13.9 91 0.9 ESE 17 22 9 12 1021.3 1020.3 0.0
09/08:00am 14.1 11.6 13.5 96 0.3 SE 19 26 10 14 1021.0 1019.9 0.0

Other Formats:

Comma delimited format used in spreadsheet applications
http://www.bom.gov.au/fwo/IDS60801/IDS60801.94811.axf

JavaScript Object Notation format (JSON) in row-major order
http://www.bom.gov.au/fwo/IDS60801/IDS60801.94811.json